Time;durP1;ratioP1;P1;durP2;ratioP2;P2;SDS_P1;SDS_P2;PMS_P1;PMS_P2;Temp;Humidity;BMP_temperature;BMP_pressure;BME280_temperature;BME280_humidity;BME280_pressure;Samples;Min_cycle;Max_cycle;Signal;HPM_P1;HPM_P2
2022/01/07 00:00:16;;;;;;;9.02;3.20;;;23.90;99.90;;;;;;5131436;27;20397;-81
2022/01/07 00:02:48;;;;;;;7.70;3.60;;;24.30;99.90;;;;;;5131276;27;20357;-84
2022/01/07 00:05:16;;;;;;;9.13;3.80;;;24.50;99.90;;;;;;5131553;27;20361;-84
2022/01/07 00:07:43;;;;;;;8.40;3.42;;;24.70;99.90;;;;;;5131327;27;20871;-86
2022/01/07 00:10:13;;;;;;;6.97;3.60;;;24.90;99.90;;;;;;5131515;27;20749;-85
2022/01/07 00:12:40;;;;;;;8.63;3.77;;;25.10;99.90;;;;;;5131657;27;20376;-87
2022/01/07 00:15:08;;;;;;;7.20;3.20;;;25.20;99.90;;;;;;5131483;27;20357;-83
2022/01/07 00:17:35;;;;;;;7.07;3.33;;;25.30;99.90;;;;;;5112912;27;20721;-83
2022/01/07 00:20:04;;;;;;;6.47;3.30;;;25.50;99.90;;;;;;5131306;27;20364;-86
2022/01/07 00:22:31;;;;;;;5.85;3.05;;;25.40;99.90;;;;;;5131137;27;20418;-85
2022/01/07 00:24:58;;;;;;;7.27;4.00;;;25.20;99.90;;;;;;5131282;27;20746;-86
2022/01/07 00:27:26;;;;;;;7.43;4.20;;;25.20;99.90;;;;;;5131191;27;20469;-86
2022/01/07 00:29:53;;;;;;;9.25;4.30;;;25.10;99.90;;;;;;5130855;27;20441;-80
2022/01/07 00:32:20;;;;;;;9.18;4.68;;;25.10;99.90;;;;;;5131075;27;20397;-86
2022/01/07 00:34:47;;;;;;;6.85;4.22;;;25.10;99.90;;;;;;5112612;27;20363;-88
2022/01/07 00:37:14;;;;;;;6.70;4.20;;;25.30;99.90;;;;;;5130744;27;20416;-87
2022/01/07 00:39:41;;;;;;;9.30;4.40;;;25.50;99.90;;;;;;5130919;27;20376;-81
2022/01/07 00:42:08;;;;;;;6.27;4.10;;;25.70;99.90;;;;;;5112410;27;20393;-85
2022/01/07 00:44:35;;;;;;;7.25;4.25;;;26.20;99.90;;;;;;5130856;27;20460;-86
2022/01/07 00:47:03;;;;;;;7.83;4.77;;;26.80;99.90;;;;;;5131018;27;20384;-86
2022/01/07 00:49:30;;;;;;;7.75;4.60;;;27.20;99.90;;;;;;5130706;27;20383;-85
2022/01/07 00:51:59;;;;;;;7.57;4.80;;;27.40;99.90;;;;;;5112434;27;20381;-90
2022/01/07 00:54:26;;;;;;;9.10;5.40;;;27.70;99.90;;;;;;5130883;27;20399;-86
2022/01/07 00:56:53;;;;;;;8.93;5.35;;;28.10;99.90;;;;;;5130572;27;20373;-81
2022/01/07 00:59:20;;;;;;;8.23;5.10;;;28.40;99.90;;;;;;5129741;27;20362;-87
2022/01/07 01:01:48;;;;;;;9.40;5.90;;;28.50;99.90;;;;;;5130735;27;20380;-77
2022/01/07 01:04:15;;;;;;;10.27;5.90;;;28.90;99.90;;;;;;5130489;27;20506;-84
2022/01/07 01:06:42;;;;;;;8.55;5.65;;;29.50;99.90;;;;;;5130530;27;20376;-77
2022/01/07 01:09:09;;;;;;;8.07;5.40;;;;;;;;;;5130538;27;20374;-85
2022/01/07 01:11:36;;;;;;;7.13;5.38;;;;;;;;;;5130481;27;20397;-87
2022/01/07 01:14:04;;;;;;;7.65;5.43;;;;;;;;;;5130473;27;20399;-85
2022/01/07 01:16:31;;;;;;;6.00;5.07;;;;;;;;;;5112107;27;20361;-82
2022/01/07 01:18:59;;;;;;;7.55;5.50;;;30.20;99.90;;;;;;5130619;27;20399;-83
2022/01/07 01:21:26;;;;;;;8.88;5.50;;;30.00;99.90;;;;;;5130228;27;20891;-86
2022/01/07 01:23:53;;;;;;;9.40;5.50;;;30.00;99.90;;;;;;5130235;27;20840;-84
2022/01/07 01:26:20;;;;;;;8.10;5.40;;;30.20;99.90;;;;;;5130048;27;20378;-83
2022/01/07 01:28:48;;;;;;;8.20;5.73;;;30.50;99.90;;;;;;5111640;27;20409;-83
2022/01/07 01:31:17;;;;;;;9.65;5.40;;;30.60;99.90;;;;;;5129893;27;20400;-80
2022/01/07 01:33:45;;;;;;;9.80;5.35;;;30.70;99.90;;;;;;5129863;27;20361;-85
2022/01/07 01:36:14;;;;;;;8.00;5.38;;;30.90;99.90;;;;;;5129930;27;20856;-85
2022/01/07 01:38:42;;;;;;;9.05;5.25;;;31.30;99.90;;;;;;5129889;27;20372;-80
2022/01/07 01:41:10;;;;;;;9.27;5.38;;;31.20;99.30;;;;;;5129712;27;20776;-81
2022/01/07 01:43:37;;;;;;;7.13;5.32;;;30.90;99.80;;;;;;5129829;27;20361;-80
2022/01/07 01:46:05;;;;;;;10.52;5.93;;;30.40;99.90;;;;;;5130261;27;20369;-92
2022/01/07 01:48:32;;;;;;;10.32;5.78;;;29.80;99.90;;;;;;5131161;27;20380;-91
2022/01/07 01:50:59;;;;;;;9.25;6.00;;;29.40;99.90;;;;;;5131656;27;20408;-93
2022/01/07 01:53:27;;;;;;;11.02;6.13;;;29.10;99.90;;;;;;5131392;27;20905;-89
2022/01/07 01:55:55;;;;;;;10.63;6.03;;;28.80;99.90;;;;;;5133824;27;20844;-96
2022/01/07 01:58:22;;;;;;;10.77;5.97;;;28.70;99.90;;;;;;5141321;27;20366;-96
2022/01/07 02:00:49;;;;;;;8.57;5.32;;;28.50;99.90;;;;;;5140184;27;20370;-94
2022/01/07 02:03:16;;;;;;;9.43;6.03;;;28.40;99.90;;;;;;5145406;27;20352;-92
2022/01/07 02:05:45;;;;;;;12.75;5.90;;;28.30;99.90;;;;;;5147575;27;20418;-86
2022/01/07 02:08:12;;;;;;;9.38;5.53;;;28.10;99.90;;;;;;5146273;27;20357;-91
2022/01/07 02:10:40;;;;;;;9.23;5.35;;;28.10;99.90;;;;;;5143613;27;20401;-90
2022/01/07 02:13:07;;;;;;;7.93;5.30;;;28.40;99.90;;;;;;5130891;27;20373;-95
2022/01/07 02:15:34;;;;;;;10.48;6.00;;;29.20;99.90;;;;;;5131534;27;20418;-93
2022/01/07 02:18:01;;;;;;;14.25;6.45;;;29.80;99.90;;;;;;5130417;27;20369;-92
2022/01/07 02:20:29;;;;;;;19.20;6.90;;;30.00;99.90;;;;;;5139128;27;20386;-96
2022/01/07 02:22:58;;;;;;;17.75;6.80;;;29.80;99.90;;;;;;5131819;27;20836;-93
2022/01/07 02:25:26;;;;;;;15.02;6.40;;;29.80;99.90;;;;;;5131181;27;20404;-89
2022/01/07 02:27:53;;;;;;;17.50;7.00;;;29.50;99.90;;;;;;5130471;28;20380;-82
2022/01/07 02:30:27;;;;;;;22.25;6.57;;;29.20;99.90;;;;;;5129080;28;20475;-82
2022/01/07 02:32:55;;;;;;;16.35;6.70;;;28.80;99.90;;;;;;5129153;28;20372;-82
2022/01/07 02:35:28;;;;;;;16.10;6.88;;;28.40;99.90;;;;;;5129207;28;20422;-82
2022/01/07 02:37:55;;;;;;;16.67;6.93;;;28.00;99.90;;;;;;5128907;28;20377;-82
2022/01/07 02:40:22;;;;;;;15.07;6.55;;;;;;;;;;5128972;28;20388;-80
2022/01/07 02:42:49;;;;;;;15.18;6.70;;;;;;;;;;5129279;28;20372;-82
2022/01/07 02:45:16;;;;;;;12.70;6.55;;;;;;;;;;5128922;28;20369;-79
2022/01/07 02:47:50;;;;;;;14.30;6.65;;;;;;;;;;5129319;28;20453;-83
2022/01/07 02:50:17;;;;;;;14.10;6.40;;;;;;;;;;5128851;28;20445;-81
2022/01/07 02:52:44;;;;;;;14.77;6.80;;;;;;;;;;5128884;28;20361;-82
2022/01/07 02:55:12;;;;;;;12.02;5.88;;;;;;;;;;5129124;28;20365;-89
2022/01/07 02:57:39;;;;;;;13.77;6.70;;;;;;;;;;5131798;28;20804;-96
2022/01/07 03:06:14;;;;;;;13.98;6.07;;;;;;;;;;5087862;28;20413;-94
2022/01/07 03:08:48;;;;;;;13.25;6.20;;;;;;;;;;5144601;28;20376;-93
2022/01/07 03:11:15;;;;;;;14.55;6.85;;;;;;;;;;5147500;28;20495;-95
2022/01/07 03:13:42;;;;;;;16.20;7.20;;;;;;;;;;5149642;28;20365;-83
2022/01/07 03:16:09;;;;;;;13.57;7.25;;;;;;;;;;5149717;28;20369;-89
2022/01/07 03:28:00;;;;;;;15.50;7.00;;;;;;;;;;5115690;28;21331;-90
2022/01/07 03:30:26;;;;;;;15.93;7.50;;;;;;;;;;5114825;28;20399;-84
2022/01/07 03:32:53;;;;;;;15.77;7.93;;;;;;;;;;5113186;28;20360;-95
2022/01/07 03:35:20;;;;;;;16.23;7.70;;;;;;;;;;5094209;28;20460;-92
2022/01/07 03:37:49;;;;;;;15.10;7.65;;;;;;;;;;5112922;28;20353;-84
2022/01/07 03:40:17;;;;;;;17.10;7.70;;;27.90;99.90;;;;;;5115045;28;20390;-85
2022/01/07 03:42:44;;;;;;;14.55;7.60;;;32.40;96.70;;;;;;5114571;28;20427;-91
2022/01/07 03:45:13;;;;;;;14.00;7.30;;;33.00;95.50;;;;;;5098163;28;20443;-92
2022/01/07 03:50:55;;;;;;;14.52;6.90;;;33.50;89.80;;;;;;5014313;28;20500;-87
2022/01/07 03:53:25;;;;;;;13.60;6.78;;;32.40;91.80;;;;;;5114572;28;20372;-91
2022/01/07 03:55:53;;;;;;;13.00;6.35;;;32.20;92.50;;;;;;5126527;27;20361;-84
2022/01/07 03:58:20;;;;;;;14.00;6.70;;;32.40;93.30;;;;;;5157544;27;20357;-89
2022/01/07 04:00:57;;;;;;;13.17;6.10;;;33.30;92.30;;;;;;5156222;27;20400;-94
2022/01/07 04:11:12;;;;;;;15.18;6.20;;;33.00;88.50;;;;;;5053255;28;20427;-95
2022/01/07 04:13:42;;;;;;;16.20;6.07;;;32.20;90.90;;;;;;5051907;28;20401;-84
2022/01/07 04:16:09;;;;;;;14.52;5.40;;;32.30;91.10;;;;;;5107082;28;20376;-96
2022/01/07 04:18:36;;;;;;;14.90;5.55;;;32.10;90.90;;;;;;5112165;28;20379;-83
2022/01/07 04:21:09;;;;;;;15.88;5.47;;;31.70;92.40;;;;;;5094547;28;20384;-91
2022/01/07 04:29:59;;;;;;;14.32;6.00;;;;;;;;;;5050490;28;20558;-92
2022/01/07 04:32:26;;;;;;;16.38;5.93;;;;;;;;;;5109364;28;20395;-96
2022/01/07 04:35:21;;;;;;;14.68;6.70;;;;;;;;;;5135022;27;20417;-92
2022/01/07 04:37:48;;;;;;;16.13;7.25;;;;;;;;;;5152067;27;20364;-95
2022/01/07 04:40:22;;;;;;;15.90;7.00;;;;;;;;;;5151970;27;20380;-95
2022/01/07 04:42:49;;;;;;;12.55;6.13;;;31.30;94.00;;;;;;5135305;27;20386;-85
2022/01/07 04:45:16;;;;;;;14.15;6.10;;;;;;;;;;5151346;27;20448;-86
2022/01/07 04:48:04;;;;;;;15.45;6.10;;;;;;;;;;5134894;27;20352;-89
2022/01/07 04:53:35;;;;;;;15.20;5.68;;;;;;;;;;5152730;27;20379;-94
2022/01/07 04:56:04;;;;;;;15.30;5.13;;;30.30;97.60;;;;;;5150847;27;20377;-93
2022/01/07 04:58:31;;;;;;;13.55;4.78;;;;;;;;;;5151050;27;20380;-89
2022/01/07 05:00:57;;;;;;;14.80;5.32;;;;;;;;;;5141802;27;20389;-84
2022/01/07 05:03:25;;;;;;;14.80;5.50;;;;;;;;;;5131019;27;20452;-87
2022/01/07 05:06:02;;;;;;;16.27;5.65;;;;;;;;;;5130564;27;20458;-88
2022/01/07 05:08:29;;;;;;;15.15;6.18;;;;;;;;;;5130941;27;20446;-86
2022/01/07 05:10:56;;;;;;;15.63;6.03;;;;;;;;;;5130704;27;20508;-84
2022/01/07 05:13:24;;;;;;;14.00;6.18;;;;;;;;;;5130411;27;20367;-85
2022/01/07 05:15:51;;;;;;;18.23;6.33;;;;;;;;;;5130742;27;20369;-84
2022/01/07 05:18:18;;;;;;;16.63;5.93;;;;;;;;;;5130823;27;20368;-84
2022/01/07 05:20:47;;;;;;;15.40;5.70;;;;;;;;;;5130187;27;20795;-84
2022/01/07 05:23:14;;;;;;;12.93;4.75;;;31.50;94.90;;;;;;5130521;27;20460;-83
2022/01/07 05:25:41;;;;;;;17.00;4.70;;;33.00;91.00;;;;;;5130352;27;20380;-86
2022/01/07 05:28:08;;;;;;;14.83;4.50;;;33.30;90.40;;;;;;5130208;27;20354;-84
2022/01/07 05:30:35;;;;;;;14.43;4.65;;;33.30;88.40;;;;;;5130095;27;20471;-85
2022/01/07 05:33:02;;;;;;;12.45;4.38;;;33.30;88.90;;;;;;5129981;27;20369;-83
2022/01/07 05:35:29;;;;;;;15.38;4.50;;;33.40;86.60;;;;;;5130004;27;20863;-85
2022/01/07 05:37:56;;;;;;;13.30;4.90;;;33.50;90.30;;;;;;5129963;27;20377;-86
2022/01/07 05:40:23;;;;;;;13.93;4.95;;;33.40;86.30;;;;;;5130228;27;20437;-82
2022/01/07 05:42:50;;;;;;;15.50;4.97;;;33.00;88.20;;;;;;5129989;27;20378;-85
2022/01/07 05:45:17;;;;;;;14.63;5.13;;;33.10;87.10;;;;;;5129423;27;20498;-84
2022/01/07 05:47:44;;;;;;;13.85;5.28;;;32.60;89.10;;;;;;5129980;27;20376;-83
2022/01/07 05:50:13;;;;;;;15.63;5.53;;;32.40;89.70;;;;;;5129710;27;20408;-85
2022/01/07 05:52:44;;;;;;;15.30;5.50;;;31.90;90.70;;;;;;5128957;27;20463;-83
2022/01/07 05:55:11;;;;;;;15.15;5.00;;;31.50;91.60;;;;;;5129796;27;20368;-83
2022/01/07 05:57:38;;;;;;;19.30;5.03;;;31.20;92.40;;;;;;5129595;27;20369;-83
2022/01/07 06:00:10;;;;;;;14.90;4.57;;;31.00;93.20;;;;;;5129742;27;20365;-82
2022/01/07 06:02:38;;;;;;;16.85;4.40;;;31.20;92.80;;;;;;5130164;27;20395;-83
2022/01/07 06:05:05;;;;;;;17.65;4.70;;;31.20;93.00;;;;;;5129622;27;20841;-84
2022/01/07 06:07:32;;;;;;;12.85;4.30;;;31.50;93.10;;;;;;5129350;27;20425;-83
2022/01/07 06:10:00;;;;;;;16.17;4.97;;;31.50;92.30;;;;;;5129340;27;20421;-85
2022/01/07 06:12:27;;;;;;;18.33;4.88;;;31.30;92.80;;;;;;5129300;27;20429;-82
2022/01/07 06:14:54;;;;;;;15.88;4.85;;;31.00;93.30;;;;;;5129459;27;20380;-88
2022/01/07 06:17:21;;;;;;;18.85;5.22;;;30.80;93.50;;;;;;5129387;27;20942;-85
2022/01/07 06:19:47;;;;;;;16.30;5.40;;;30.50;94.10;;;;;;5129451;27;20745;-84
2022/01/07 06:22:15;;;;;;;18.50;5.53;;;30.20;95.60;;;;;;5129515;27;20926;-83
2022/01/07 06:24:41;;;;;;;18.17;5.35;;;30.00;95.60;;;;;;5129303;27;20875;-83
2022/01/07 06:27:09;;;;;;;19.60;5.15;;;30.10;95.90;;;;;;5129435;27;20377;-83
2022/01/07 06:29:37;;;;;;;20.08;5.30;;;30.00;96.30;;;;;;5129527;28;20374;-86
2022/01/07 06:32:05;;;;;;;20.15;5.30;;;30.00;96.00;;;;;;5129516;28;20401;-84
2022/01/07 06:34:32;;;;;;;20.83;5.68;;;30.00;96.40;;;;;;5129086;28;20712;-83
2022/01/07 06:37:01;;;;;;;21.63;5.45;;;29.90;96.60;;;;;;5129237;28;20364;-83
2022/01/07 06:39:32;;;;;;;18.13;5.03;;;29.90;97.30;;;;;;5129050;28;20414;-82
2022/01/07 06:42:01;;;;;;;17.77;5.27;;;29.60;97.40;;;;;;5128923;28;20390;-85
2022/01/07 06:44:29;;;;;;;23.00;5.50;;;29.50;97.80;;;;;;5128895;28;20406;-84
2022/01/07 06:46:56;;;;;;;20.90;5.83;;;29.30;98.00;;;;;;5129014;28;20383;-82
2022/01/07 06:49:23;;;;;;;21.80;5.57;;;29.40;98.20;;;;;;5128841;28;20443;-77
2022/01/07 06:51:54;;;;;;;20.35;5.53;;;29.40;98.10;;;;;;5128895;28;20852;-83
2022/01/07 06:54:21;;;;;;;19.48;5.38;;;29.30;98.10;;;;;;5111864;28;20353;-81
2022/01/07 06:56:48;;;;;;;22.95;5.55;;;29.10;99.00;;;;;;5129177;27;20520;-85
2022/01/07 06:59:15;;;;;;;19.75;5.35;;;28.90;99.80;;;;;;5133233;27;20365;-84
2022/01/07 07:01:43;;;;;;;25.05;5.22;;;29.20;99.30;;;;;;5133599;27;20376;-81
2022/01/07 07:04:10;;;;;;;20.25;5.43;;;29.70;99.00;;;;;;5133155;27;20739;-81
2022/01/07 07:06:37;;;;;;;18.40;5.28;;;30.30;97.90;;;;;;5114543;27;20751;-84
2022/01/07 07:09:05;;;;;;;20.97;5.00;;;31.00;95.60;;;;;;5132967;27;20365;-80
2022/01/07 07:11:32;;;;;;;19.25;5.10;;;31.20;94.50;;;;;;5132780;27;20479;-83
2022/01/07 07:13:59;;;;;;;22.35;5.45;;;31.20;93.70;;;;;;5132780;27;20927;-81
2022/01/07 07:16:26;;;;;;;19.85;5.60;;;30.80;94.10;;;;;;5133178;27;20376;-84
2022/01/07 07:18:53;;;;;;;22.30;5.82;;;30.50;94.60;;;;;;5132670;27;20434;-84
2022/01/07 07:21:20;;;;;;;17.98;5.47;;;29.80;96.00;;;;;;5132705;27;20382;-83
2022/01/07 07:23:48;;;;;;;22.83;6.32;;;29.30;97.30;;;;;;5114169;27;20808;-83
2022/01/07 07:26:15;;;;;;;23.00;6.87;;;28.90;98.40;;;;;;5132633;27;20920;-83
2022/01/07 07:28:41;;;;;;;19.10;6.10;;;28.50;99.60;;;;;;5132633;27;20446;-83
2022/01/07 07:31:14;;;;;;;23.92;6.38;;;28.30;99.90;;;;;;5132407;27;20466;-83
2022/01/07 07:39:02;;;;;;;24.05;5.85;;;27.60;99.90;;;;;;5132857;27;20898;-83
2022/01/07 07:41:31;;;;;;;25.08;5.65;;;27.40;99.90;;;;;;5132269;27;20438;-83
2022/01/07 07:43:59;;;;;;;20.80;5.43;;;27.30;99.90;;;;;;5132328;27;20372;-83
2022/01/07 07:46:30;;;;;;;22.45;5.95;;;27.30;99.90;;;;;;5132163;27;20361;-83
2022/01/07 07:48:57;;;;;;;24.07;6.00;;;27.20;99.90;;;;;;5132032;27;20430;-82
2022/01/07 07:51:24;;;;;;;22.73;5.55;;;27.20;99.90;;;;;;5131972;27;20404;-83
2022/01/07 07:53:51;;;;;;;22.02;5.38;;;27.20;99.90;;;;;;5113542;27;20709;-83
2022/01/07 07:56:18;;;;;;;24.07;5.73;;;27.20;99.90;;;;;;5131960;27;20372;-83
2022/01/07 07:58:46;;;;;;;25.25;5.75;;;27.20;99.90;;;;;;5132084;27;20372;-84
2022/01/07 08:01:14;;;;;;;24.63;5.53;;;27.10;99.90;;;;;;5131887;27;20369;-83
2022/01/07 08:03:41;;;;;;;26.23;5.72;;;27.00;99.90;;;;;;5131954;27;20412;-86
2022/01/07 08:06:08;;;;;;;23.98;5.95;;;27.00;99.90;;;;;;5131766;27;20369;-83
2022/01/07 08:08:36;;;;;;;24.33;5.90;;;27.00;99.90;;;;;;5131443;27;20361;-83
2022/01/07 08:11:07;;;;;;;23.60;5.93;;;27.00;99.90;;;;;;5131717;27;20424;-83
2022/01/07 08:16:20;;;;;;;22.90;5.60;;;;;;;;;;5132385;27;20357;-83
2022/01/07 08:18:51;;;;;;;25.60;5.70;;;26.90;99.90;;;;;;5131794;27;20389;-83
2022/01/07 08:21:18;;;;;;;25.63;5.88;;;26.60;99.90;;;;;;5131597;27;20853;-83
2022/01/07 08:23:46;;;;;;;28.70;5.97;;;26.40;99.90;;;;;;5131537;27;20375;-83
2022/01/07 08:26:16;;;;;;;24.27;5.60;;;26.30;99.90;;;;;;5131511;27;20374;-82
2022/01/07 08:28:51;;;;;;;26.70;5.93;;;26.30;99.90;;;;;;5131467;27;20487;-83
2022/01/07 08:36:33;;;;;;;24.63;5.78;;;26.10;99.90;;;;;;5131737;27;20360;-83
2022/01/07 08:39:00;;;;;;;25.02;5.32;;;26.10;99.90;;;;;;5131197;27;20856;-82
2022/01/07 08:41:30;;;;;;;25.38;5.82;;;26.10;99.90;;;;;;5130846;27;20400;-81
2022/01/07 08:43:58;;;;;;;26.30;5.53;;;25.90;99.90;;;;;;5131474;27;20848;-83
2022/01/07 08:46:25;;;;;;;24.58;5.60;;;25.90;99.90;;;;;;5131582;27;20409;-82
2022/01/07 08:48:52;;;;;;;29.13;6.22;;;25.90;99.90;;;;;;5131054;27;20418;-82
2022/01/07 08:51:19;;;;;;;26.33;5.70;;;25.80;99.90;;;;;;5130906;27;20781;-83
2022/01/07 08:53:46;;;;;;;26.17;5.97;;;25.70;99.90;;;;;;5130866;27;20361;-82
2022/01/07 08:56:13;;;;;;;26.58;5.60;;;25.60;99.90;;;;;;5112374;27;20738;-82
2022/01/07 08:58:40;;;;;;;26.48;5.78;;;25.50;99.90;;;;;;5130781;27;20422;-82
2022/01/07 09:01:07;;;;;;;24.52;5.90;;;25.40;99.90;;;;;;5130933;27;20382;-85
2022/01/07 09:03:34;;;;;;;31.20;6.10;;;25.40;99.90;;;;;;5131533;27;20704;-82
2022/01/07 09:06:01;;;;;;;28.05;5.40;;;25.40;99.90;;;;;;5130511;27;20380;-82
2022/01/07 09:08:28;;;;;;;26.57;6.20;;;25.30;99.90;;;;;;5130478;27;20415;-82
2022/01/07 09:10:55;;;;;;;28.02;6.00;;;25.40;99.90;;;;;;5130373;27;20416;-82
2022/01/07 09:13:22;;;;;;;27.38;6.05;;;25.30;99.90;;;;;;5130462;27;20434;-82
2022/01/07 09:15:49;;;;;;;27.30;6.20;;;25.30;99.90;;;;;;5131070;27;20368;-82
2022/01/07 09:18:16;;;;;;;29.50;6.05;;;25.30;99.90;;;;;;5130417;27;20398;-82
2022/01/07 09:20:46;;;;;;;27.52;6.00;;;;;;;;;;5129639;27;20917;-83
2022/01/07 09:23:13;;;;;;;27.35;6.20;;;;;;;;;;5130969;27;20361;-83
2022/01/07 09:25:41;;;;;;;28.13;6.32;;;;;;;;;;5130487;27;20725;-84
2022/01/07 09:28:09;;;;;;;29.67;6.32;;;;;;;;;;5130344;27;20397;-83
2022/01/07 09:30:36;;;;;;;29.87;6.73;;;25.30;99.90;;;;;;5130184;27;20399;-84
2022/01/07 09:33:04;;;;;;;27.05;6.95;;;25.10;99.90;;;;;;5130202;27;20422;-84
2022/01/07 09:35:31;;;;;;;24.87;6.37;;;;;;;;;;5130047;27;20373;-81
2022/01/07 09:37:58;;;;;;;35.13;8.27;;;25.10;99.90;;;;;;5129949;27;20385;-84
2022/01/07 09:40:25;;;;;;;27.60;6.32;;;;;;;;;;5129775;27;20389;-83
2022/01/07 09:43:06;;;;;;;26.33;6.68;;;25.10;99.90;;;;;;5129978;27;20373;-85
2022/01/07 09:45:36;;;;;;;29.67;6.50;;;25.10;99.90;;;;;;5129837;27;20425;-87
2022/01/07 09:48:03;;;;;;;31.13;6.25;;;25.00;99.90;;;;;;5129983;27;20748;-89
2022/01/07 09:50:32;;;;;;;27.17;6.20;;;25.00;99.90;;;;;;5129687;27;20383;-84
2022/01/07 09:53:05;;;;;;;28.40;6.23;;;25.00;99.90;;;;;;5111376;27;20866;-84
2022/01/07 09:55:33;;;;;;;31.00;5.70;;;25.00;99.90;;;;;;5130266;27;20425;-83
2022/01/07 09:58:00;;;;;;;27.77;6.20;;;25.00;99.90;;;;;;5129788;27;20757;-80
2022/01/07 10:00:33;;;;;;;32.45;6.60;;;25.00;99.90;;;;;;5129739;27;20422;-81
2022/01/07 10:03:00;;;;;;;28.05;6.20;;;24.90;99.90;;;;;;5129696;27;20762;-82
2022/01/07 10:05:28;;;;;;;31.77;6.22;;;24.80;99.90;;;;;;5129889;27;20394;-83
2022/01/07 10:07:55;;;;;;;29.80;6.75;;;24.70;99.90;;;;;;5129773;27;20379;-81
2022/01/07 10:10:22;;;;;;;31.92;6.05;;;24.60;99.90;;;;;;5129447;27;20392;-80
2022/01/07 10:12:55;;;;;;;30.63;6.40;;;24.60;99.90;;;;;;5129551;27;20369;-84
2022/01/07 10:15:36;;;;;;;29.63;6.65;;;24.60;99.90;;;;;;5129819;27;20417;-82
2022/01/07 10:18:11;;;;;;;29.60;6.07;;;24.50;99.90;;;;;;5111030;27;20755;-83
2022/01/07 10:20:47;;;;;;;34.88;6.30;;;24.50;99.90;;;;;;5129442;27;20353;-82
2022/01/07 10:23:26;;;;;;;31.50;6.78;;;24.40;99.90;;;;;;5129376;27;20381;-83
2022/01/07 10:25:55;;;;;;;28.90;6.28;;;24.40;99.90;;;;;;5129644;27;20366;-83
2022/01/07 10:28:28;;;;;;;27.05;6.32;;;24.50;99.90;;;;;;5129802;27;20376;-82
2022/01/07 10:30:56;;;;;;;25.93;6.03;;;24.50;99.90;;;;;;5129107;27;20446;-84
2022/01/07 10:33:42;;;;;;;27.70;6.00;;;24.50;99.90;;;;;;5129318;28;20361;-83
2022/01/07 10:36:09;;;;;;;29.20;6.10;;;24.60;99.90;;;;;;5129274;28;20353;-83
2022/01/07 10:38:57;;;;;;;30.00;5.93;;;24.60;99.90;;;;;;5129141;28;20513;-83
2022/01/07 10:41:24;;;;;;;31.13;6.28;;;24.60;99.90;;;;;;5128950;28;20387;-83
2022/01/07 10:43:52;;;;;;;27.70;5.63;;;24.60;99.90;;;;;;5129136;28;20380;-82
2022/01/07 10:46:27;;;;;;;24.83;5.70;;;24.70;99.90;;;;;;5129192;28;20377;-83
2022/01/07 10:48:59;;;;;;;28.05;6.15;;;24.70;99.90;;;;;;5129143;28;20757;-82
2022/01/07 10:51:31;;;;;;;28.38;6.03;;;24.70;99.90;;;;;;5129211;28;20389;-83
2022/01/07 10:54:01;;;;;;;28.85;6.30;;;24.70;99.90;;;;;;5129174;28;20369;-83
2022/01/07 10:56:40;;;;;;;24.57;5.50;;;24.60;99.90;;;;;;5129159;28;20406;-83
2022/01/07 10:59:08;;;;;;;28.83;6.18;;;24.60;99.90;;;;;;5128979;28;20429;-83
2022/01/07 11:01:43;;;;;;;32.38;6.10;;;24.60;99.90;;;;;;5129060;28;20393;-82
2022/01/07 11:04:21;;;;;;;28.88;5.80;;;24.70;99.90;;;;;;5129033;28;20365;-83
2022/01/07 11:06:53;;;;;;;26.50;5.75;;;24.70;99.90;;;;;;5129118;28;20726;-83
2022/01/07 11:09:20;;;;;;;27.40;5.75;;;24.60;99.90;;;;;;5110569;28;20403;-83
2022/01/07 11:11:57;;;;;;;26.08;5.97;;;24.60;99.90;;;;;;5128834;28;20400;-83
2022/01/07 11:14:26;;;;;;;26.40;6.00;;;24.60;99.90;;;;;;5128801;28;20369;-83
2022/01/07 11:16:57;;;;;;;32.58;5.97;;;24.60;99.90;;;;;;5128804;28;20694;-83
2022/01/07 11:19:33;;;;;;;28.45;6.40;;;24.70;99.90;;;;;;5129427;28;20357;-83
2022/01/07 11:22:00;;;;;;;29.58;6.00;;;24.70;99.90;;;;;;5128937;28;20365;-84
2022/01/07 11:24:36;;;;;;;26.80;6.15;;;24.50;99.90;;;;;;5128856;28;20377;-83
2022/01/07 11:27:06;;;;;;;27.60;6.40;;;24.50;99.90;;;;;;5128833;28;20393;-83
2022/01/07 11:29:37;;;;;;;25.20;5.90;;;24.40;99.90;;;;;;5128823;28;20376;-83
2022/01/07 11:32:25;;;;;;;30.13;6.60;;;24.40;99.90;;;;;;5128807;28;20469;-82
2022/01/07 11:35:13;;;;;;;30.07;6.10;;;24.50;99.90;;;;;;5129163;28;20499;-82
2022/01/07 11:37:42;;;;;;;14.13;3.65;;;24.50;99.90;;;;;;5129274;28;20377;-83
2022/01/07 11:40:09;;;;;;;1.80;0.70;;;24.30;99.90;;;;;;5110084;28;20376;-82
2022/01/07 11:42:44;;;;;;;1.98;0.50;;;23.40;99.90;;;;;;5128779;27;20437;-80
2022/01/07 11:45:31;;;;;;;0.63;0.40;;;22.70;99.90;;;;;;5132177;27;20363;-79
2022/01/07 11:48:05;;;;;;;2.85;0.68;;;22.10;99.90;;;;;;5132220;27;20373;-81
2022/01/07 11:50:32;;;;;;;2.13;0.60;;;21.60;99.90;;;;;;5132725;27;20774;-79
2022/01/07 11:53:04;;;;;;;1.48;0.60;;;21.00;99.90;;;;;;5132181;27;20825;-80
2022/01/07 11:55:36;;;;;;;1.83;0.80;;;20.70;99.90;;;;;;5132405;27;20844;-79
2022/01/07 11:58:13;;;;;;;3.28;0.90;;;20.60;99.90;;;;;;5113627;27;20846;-80
2022/01/07 12:01:00;;;;;;;4.18;1.23;;;20.50;99.90;;;;;;5132019;27;20820;-80
2022/01/07 12:03:46;;;;;;;3.83;1.20;;;20.40;99.90;;;;;;5132556;27;20406;-80
2022/01/07 12:06:31;;;;;;;4.28;1.02;;;20.30;99.90;;;;;;5131974;27;20388;-79
2022/01/07 12:11:54;;;;;;;3.45;1.00;;;20.20;99.90;;;;;;5131759;27;20400;-80
2022/01/07 12:14:23;;;;;;;7.13;1.42;;;20.10;99.90;;;;;;5131694;27;20377;-78
2022/01/07 12:16:57;;;;;;;6.25;1.25;;;20.00;99.90;;;;;;5131751;27;20365;-80
2022/01/07 12:19:36;;;;;;;7.40;1.20;;;20.00;99.90;;;;;;5131803;27;20363;-81
2022/01/07 12:22:09;;;;;;;5.05;1.10;;;20.00;99.90;;;;;;5132190;27;20522;-78
2022/01/07 12:24:36;;;;;;;3.03;1.23;;;20.00;99.90;;;;;;5132213;27;20782;-80
2022/01/07 12:27:13;;;;;;;3.40;1.30;;;20.00;99.90;;;;;;5113155;27;20484;-81
2022/01/07 12:29:43;;;;;;;4.60;1.33;;;20.00;99.90;;;;;;5131567;27;20368;-80
2022/01/07 12:32:12;;;;;;;4.80;1.55;;;20.00;99.90;;;;;;5131333;27;20409;-80
2022/01/07 12:34:43;;;;;;;4.38;1.60;;;20.00;99.90;;;;;;5131510;27;20365;-80
2022/01/07 12:37:12;;;;;;;3.38;1.45;;;20.00;99.90;;;;;;5131595;27;20868;-81
2022/01/07 12:39:42;;;;;;;6.68;1.90;;;20.00;99.90;;;;;;5112884;27;20786;-81
2022/01/07 12:42:10;;;;;;;8.25;2.47;;;20.00;99.90;;;;;;5112973;27;20396;-81
2022/01/07 12:44:43;;;;;;;9.40;2.78;;;20.00;99.90;;;;;;5130724;27;20383;-82
2022/01/07 12:47:14;;;;;;;6.95;2.28;;;20.10;99.90;;;;;;5131112;27;20373;-81
2022/01/07 12:49:48;;;;;;;6.05;2.00;;;20.20;99.90;;;;;;5131111;27;20367;-81
2022/01/07 12:52:21;;;;;;;13.27;1.80;;;20.30;99.90;;;;;;5131021;27;20767;-80
2022/01/07 12:55:04;;;;;;;8.57;1.70;;;20.20;99.90;;;;;;5130003;27;20373;-80
2022/01/07 12:57:36;;;;;;;5.85;1.25;;;20.10;99.90;;;;;;5113670;27;20736;-82
2022/01/07 13:00:10;;;;;;;2.90;1.30;;;20.00;99.90;;;;;;5130784;27;20865;-80
2022/01/07 13:02:40;;;;;;;2.78;1.20;;;19.90;99.90;;;;;;5131442;27;20358;-80
2022/01/07 13:05:15;;;;;;;3.03;1.23;;;19.80;99.90;;;;;;5130818;27;20384;-79
2022/01/07 13:08:04;;;;;;;2.58;1.27;;;19.80;99.90;;;;;;5130567;27;20389;-79
2022/01/07 13:10:35;;;;;;;3.03;1.30;;;19.80;99.90;;;;;;5130414;27;20380;-80
2022/01/07 13:13:07;;;;;;;3.05;1.63;;;19.80;99.90;;;;;;5130439;27;20894;-80
2022/01/07 13:15:41;;;;;;;4.15;3.08;;;19.70;99.90;;;;;;5130491;27;20369;-80
2022/01/07 13:18:31;;;;;;;4.18;1.85;;;19.70;99.90;;;;;;5130533;27;20361;-80
2022/01/07 13:21:19;;;;;;;3.45;1.50;;;19.70;99.90;;;;;;5130375;27;20377;-80
2022/01/07 13:23:50;;;;;;;3.30;1.73;;;19.70;99.90;;;;;;5130506;27;20373;-80
2022/01/07 13:26:17;;;;;;;5.43;1.97;;;19.70;99.90;;;;;;5130496;27;20917;-80
2022/01/07 13:28:47;;;;;;;4.05;1.92;;;19.60;99.90;;;;;;5130256;27;20448;-80
2022/01/07 13:31:18;;;;;;;4.00;2.30;;;19.70;99.90;;;;;;5129999;27;20397;-80
2022/01/07 13:33:45;;;;;;;4.13;2.00;;;19.70;99.90;;;;;;5130301;27;20367;-80
2022/01/07 13:36:15;;;;;;;6.78;1.88;;;19.70;99.90;;;;;;5130112;27;20369;-80
2022/01/07 13:38:42;;;;;;;6.07;2.45;;;19.70;99.90;;;;;;5130155;27;20393;-80
2022/01/07 13:41:15;;;;;;;4.72;2.55;;;19.70;99.90;;;;;;5129810;27;20442;-81
2022/01/07 13:43:48;;;;;;;3.63;2.30;;;19.80;99.90;;;;;;5129940;27;20365;-80
2022/01/07 13:46:16;;;;;;;4.28;2.30;;;19.80;99.90;;;;;;5130465;27;20389;-80
2022/01/07 13:49:09;;;;;;;5.13;2.33;;;20.00;99.90;;;;;;5129704;27;20361;-79
2022/01/07 13:51:38;;;;;;;6.45;2.10;;;20.10;99.90;;;;;;5130105;27;20475;-80
2022/01/07 13:54:06;;;;;;;5.88;2.00;;;20.00;99.90;;;;;;5129943;27;20366;-80
2022/01/07 13:56:34;;;;;;;5.55;1.90;;;19.90;99.90;;;;;;5130074;27;20373;-80
2022/01/07 13:59:07;;;;;;;5.88;2.28;;;19.80;99.90;;;;;;5130004;27;20392;-80